VLG368N LEBB-EGLL
Flight info
| Callsign | VLG368N |
|---|---|
| Flight time | 1h 20m |
| Altitude | 34000 |
| Route | MAPAX N867 NENEM DCT ECRIM DCT DIDIG UP87 ROXOG |
| Aircraft | A320/M-SDFGHILORVWXY/LB1 |
Departure
| Time | 2026-04-30 12:28 |
|---|---|
| Airport | Bilbao Airport (LEBB) |
Arrival
| Time | 2026-04-30 13:48 |
|---|---|
| Airport | London Heathrow Airport (EGLL) |
| Time | Latitude | Longitude | Altitude | Speed | Heading |
|---|---|---|---|---|---|
| 2026-04-30 12:08 | 43.30409 | -2.90578 | 132 ft | 0 kts | 26° |
| 2026-04-30 12:19 | 43.30396 | -2.90587 | 132 ft | 4 kts | 29° |
| 2026-04-30 12:19 | 43.30373 | -2.90607 | 132 ft | 4 kts | 42° |
| 2026-04-30 12:19 | 43.30357 | -2.90634 | 132 ft | 4 kts | 79° |
| 2026-04-30 12:20 | 43.30357 | -2.90653 | 132 ft | 0 kts | 116° |
| 2026-04-30 12:23 | 43.30357 | -2.90652 | 132 ft | 0 kts | 116° |
| 2026-04-30 12:23 | 43.30348 | -2.90626 | 132 ft | 5 kts | 117° |
| 2026-04-30 12:23 | 43.30317 | -2.90589 | 132 ft | 7 kts | 143° |
| 2026-04-30 12:23 | 43.30275 | -2.90549 | 132 ft | 8 kts | 146° |
| 2026-04-30 12:24 | 43.30217 | -2.90529 | 132 ft | 10 kts | 192° |
| 2026-04-30 12:24 | 43.30150 | -2.90577 | 132 ft | 12 kts | 193° |
| 2026-04-30 12:24 | 43.30091 | -2.90500 | 132 ft | 13 kts | 118° |
| 2026-04-30 12:24 | 43.30047 | -2.90380 | 132 ft | 15 kts | 117° |
| 2026-04-30 12:25 | 43.29998 | -2.90247 | 132 ft | 17 kts | 117° |
| 2026-04-30 12:25 | 43.29942 | -2.90094 | 132 ft | 19 kts | 117° |
| 2026-04-30 12:25 | 43.29900 | -2.89980 | 132 ft | 9 kts | 116° |
| 2026-04-30 12:25 | 43.29871 | -2.89898 | 132 ft | 11 kts | 116° |
| 2026-04-30 12:26 | 43.29834 | -2.89799 | 132 ft | 13 kts | 116° |
| 2026-04-30 12:26 | 43.29791 | -2.89681 | 132 ft | 15 kts | 117° |
| 2026-04-30 12:26 | 43.29733 | -2.89587 | 132 ft | 11 kts | 168° |
| 2026-04-30 12:26 | 43.29670 | -2.89644 | 132 ft | 9 kts | 220° |
| 2026-04-30 12:27 | 43.29616 | -2.89713 | 127 ft | 10 kts | 256° |
| 2026-04-30 12:27 | 43.29655 | -2.89817 | 124 ft | 29 kts | 297° |
| 2026-04-30 12:27 | 43.29853 | -2.90364 | 123 ft | 96 kts | 296° |
| 2026-04-30 12:27 | 43.30232 | -2.91396 | 128 ft | 144 kts | 295° |
| 2026-04-30 12:28 | 43.30687 | -2.92673 | 661 ft | 149 kts | 296° |
| 2026-04-30 12:28 | 43.31157 | -2.93966 | 1224 ft | 155 kts | 299° |
| 2026-04-30 12:28 | 43.31701 | -2.95360 | 1493 ft | 174 kts | 307° |
| 2026-04-30 12:28 | 43.32291 | -2.96180 | 1761 ft | 185 kts | 326° |
| 2026-04-30 12:29 | 43.33510 | -2.96891 | 2123 ft | 201 kts | 348° |
| 2026-04-30 12:29 | 43.34982 | -2.97256 | 2403 ft | 227 kts | 351° |
| 2026-04-30 12:29 | 43.36601 | -2.97595 | 3021 ft | 242 kts | 352° |
| 2026-04-30 12:29 | 43.38322 | -2.97939 | 3670 ft | 258 kts | 351° |
| 2026-04-30 12:30 | 43.40133 | -2.98308 | 4487 ft | 266 kts | 350° |
| 2026-04-30 12:30 | 43.41982 | -2.98690 | 5348 ft | 272 kts | 351° |
| 2026-04-30 12:30 | 43.43870 | -2.99088 | 6205 ft | 277 kts | 349° |
| 2026-04-30 12:30 | 43.45793 | -2.99499 | 7034 ft | 282 kts | 349° |
| 2026-04-30 12:31 | 43.47741 | -2.99917 | 7888 ft | 285 kts | 349° |
| 2026-04-30 12:31 | 43.49706 | -3.00343 | 8753 ft | 287 kts | 349° |
| 2026-04-30 12:31 | 43.51696 | -3.00776 | 9591 ft | 291 kts | 349° |
| 2026-04-30 12:31 | 43.53709 | -3.01214 | 10344 ft | 297 kts | 349° |
| 2026-04-30 12:32 | 43.55827 | -3.01678 | 10608 ft | 320 kts | 350° |
| 2026-04-30 12:32 | 43.58080 | -3.02172 | 11009 ft | 333 kts | 349° |
| 2026-04-30 12:32 | 43.60388 | -3.02675 | 11698 ft | 338 kts | 349° |
| 2026-04-30 12:32 | 43.62719 | -3.03177 | 12433 ft | 340 kts | 349° |
| 2026-04-30 12:33 | 43.65099 | -3.03688 | 13170 ft | 343 kts | 350° |
| 2026-04-30 12:33 | 43.67461 | -3.04200 | 13889 ft | 345 kts | 350° |
| 2026-04-30 12:33 | 43.69809 | -3.04742 | 14511 ft | 347 kts | 348° |
| 2026-04-30 12:33 | 43.72249 | -3.05406 | 15142 ft | 350 kts | 347° |
| 2026-04-30 12:34 | 43.74634 | -3.06111 | 15780 ft | 351 kts | 346° |
| 2026-04-30 12:34 | 43.77024 | -3.06836 | 16416 ft | 353 kts | 346° |
| 2026-04-30 12:34 | 43.79434 | -3.07564 | 17048 ft | 355 kts | 346° |
| 2026-04-30 12:34 | 43.81856 | -3.08286 | 17660 ft | 357 kts | 346° |
| 2026-04-30 12:35 | 43.84297 | -3.09003 | 18282 ft | 360 kts | 346° |
| 2026-04-30 12:35 | 43.86756 | -3.09712 | 18827 ft | 362 kts | 346° |
| 2026-04-30 12:35 | 43.89236 | -3.10422 | 19371 ft | 365 kts | 346° |
| 2026-04-30 12:35 | 43.91727 | -3.11139 | 19927 ft | 367 kts | 346° |
| 2026-04-30 12:36 | 43.94241 | -3.11865 | 20459 ft | 370 kts | 346° |
| 2026-04-30 12:36 | 43.96771 | -3.12596 | 20980 ft | 373 kts | 345° |
| 2026-04-30 12:36 | 43.99318 | -3.13335 | 21476 ft | 375 kts | 346° |
| 2026-04-30 12:36 | 44.01916 | -3.14090 | 21951 ft | 379 kts | 346° |
| 2026-04-30 12:37 | 44.04519 | -3.14500 | 22418 ft | 384 kts | 356° |
| 2026-04-30 12:37 | 44.07239 | -3.14202 | 22906 ft | 391 kts | 7° |
| 2026-04-30 12:37 | 44.09893 | -3.13286 | 23379 ft | 395 kts | 12° |
| 2026-04-30 12:37 | 44.12558 | -3.12286 | 23827 ft | 398 kts | 12° |
| 2026-04-30 12:38 | 44.15242 | -3.11283 | 24228 ft | 400 kts | 11° |
| 2026-04-30 12:38 | 44.17935 | -3.10280 | 24620 ft | 403 kts | 11° |
| 2026-04-30 12:38 | 44.20650 | -3.09274 | 25031 ft | 404 kts | 12° |
| 2026-04-30 12:38 | 44.23377 | -3.08265 | 25424 ft | 406 kts | 11° |
| 2026-04-30 12:39 | 44.26119 | -3.07249 | 25821 ft | 409 kts | 11° |
| 2026-04-30 12:39 | 44.28877 | -3.06225 | 26207 ft | 411 kts | 11° |
| 2026-04-30 12:39 | 44.31647 | -3.05193 | 26620 ft | 413 kts | 11° |
| 2026-04-30 12:39 | 44.34422 | -3.04156 | 27029 ft | 414 kts | 11° |
| 2026-04-30 12:40 | 44.37214 | -3.03114 | 27412 ft | 416 kts | 11° |
| 2026-04-30 12:40 | 44.40020 | -3.02068 | 27804 ft | 418 kts | 12° |
| 2026-04-30 12:40 | 44.42829 | -3.01017 | 28205 ft | 419 kts | 12° |
| 2026-04-30 12:40 | 44.45655 | -2.99957 | 28586 ft | 421 kts | 11° |
| 2026-04-30 12:41 | 44.48494 | -2.98889 | 28968 ft | 423 kts | 11° |
| 2026-04-30 12:41 | 44.51346 | -2.97814 | 29348 ft | 426 kts | 11° |
| 2026-04-30 12:41 | 44.54219 | -2.96729 | 29722 ft | 428 kts | 11° |
| 2026-04-30 12:41 | 44.57096 | -2.95645 | 30096 ft | 430 kts | 11° |
| 2026-04-30 12:42 | 44.59996 | -2.94555 | 30399 ft | 432 kts | 13° |
| 2026-04-30 12:42 | 44.62913 | -2.93457 | 30696 ft | 435 kts | 13° |
| 2026-04-30 12:42 | 44.65840 | -2.92357 | 31002 ft | 436 kts | 13° |
| 2026-04-30 12:42 | 44.68768 | -2.91255 | 31400 ft | 436 kts | 13° |
| 2026-04-30 12:43 | 44.71740 | -2.90133 | 31790 ft | 436 kts | 13° |
| 2026-04-30 12:43 | 44.74709 | -2.89009 | 32173 ft | 436 kts | 13° |
| 2026-04-30 12:43 | 44.77641 | -2.87897 | 32554 ft | 437 kts | 13° |
| 2026-04-30 12:43 | 44.80574 | -2.86786 | 32933 ft | 437 kts | 13° |
| 2026-04-30 12:44 | 44.83507 | -2.85672 | 33316 ft | 437 kts | 13° |
| 2026-04-30 12:44 | 44.86444 | -2.84556 | 33704 ft | 437 kts | 13° |
| 2026-04-30 12:44 | 44.89388 | -2.83433 | 34091 ft | 438 kts | 13° |
| 2026-04-30 12:44 | 44.92324 | -2.82312 | 34412 ft | 438 kts | 13° |
| 2026-04-30 12:45 | 44.95269 | -2.81191 | 34721 ft | 438 kts | 13° |
| 2026-04-30 12:45 | 44.98214 | -2.80066 | 35047 ft | 438 kts | 13° |
| 2026-04-30 12:45 | 45.01157 | -2.78942 | 35367 ft | 438 kts | 13° |
| 2026-04-30 12:45 | 45.04093 | -2.77816 | 35661 ft | 438 kts | 13° |
| 2026-04-30 12:46 | 45.07039 | -2.76684 | 35940 ft | 439 kts | 13° |
| 2026-04-30 12:46 | 45.09990 | -2.75549 | 36072 ft | 441 kts | 13° |
| 2026-04-30 12:46 | 45.15926 | -2.73268 | 36101 ft | 442 kts | 13° |
| 2026-04-30 12:47 | 45.21871 | -2.70990 | 36093 ft | 443 kts | 13° |
| 2026-04-30 12:47 | 45.27826 | -2.68694 | 36093 ft | 445 kts | 13° |
| 2026-04-30 12:48 | 45.33859 | -2.66363 | 36093 ft | 447 kts | 13° |
| 2026-04-30 12:48 | 45.39865 | -2.64036 | 36098 ft | 448 kts | 14° |
| 2026-04-30 12:49 | 45.45877 | -2.61701 | 36096 ft | 448 kts | 13° |
| 2026-04-30 12:49 | 45.51945 | -2.59750 | 36105 ft | 447 kts | 4° |
| 2026-04-30 12:50 | 45.58130 | -2.58814 | 36098 ft | 447 kts | 6° |
| 2026-04-30 12:50 | 45.64367 | -2.57652 | 36092 ft | 448 kts | 7° |
| 2026-04-30 12:51 | 45.70571 | -2.56354 | 36094 ft | 449 kts | 7° |
| 2026-04-30 12:51 | 45.76764 | -2.55095 | 36092 ft | 450 kts | 8° |
| 2026-04-30 12:52 | 45.83013 | -2.53872 | 36079 ft | 451 kts | 8° |
| 2026-04-30 12:52 | 45.89243 | -2.52662 | 36081 ft | 452 kts | 8° |
| 2026-04-30 12:53 | 45.95479 | -2.51413 | 36086 ft | 453 kts | 8° |
| 2026-04-30 12:53 | 46.01726 | -2.50153 | 36085 ft | 453 kts | 8° |
| 2026-04-30 12:54 | 46.07972 | -2.48906 | 36086 ft | 453 kts | 8° |
| 2026-04-30 12:54 | 46.13205 | -2.47871 | 36096 ft | 453 kts | 8° |
| 2026-04-30 12:55 | 46.19455 | -2.46629 | 36094 ft | 453 kts | 8° |
| 2026-04-30 12:55 | 46.25702 | -2.45371 | 36093 ft | 453 kts | 8° |
| 2026-04-30 12:56 | 46.31953 | -2.44119 | 36094 ft | 453 kts | 8° |
| 2026-04-30 12:56 | 46.38200 | -2.42873 | 36087 ft | 453 kts | 8° |
| 2026-04-30 12:57 | 46.44456 | -2.41606 | 36086 ft | 454 kts | 9° |
| 2026-04-30 12:57 | 46.50711 | -2.40335 | 36084 ft | 454 kts | 9° |
| 2026-04-30 12:58 | 46.56964 | -2.39068 | 36075 ft | 454 kts | 9° |
| 2026-04-30 12:58 | 46.63236 | -2.37798 | 36074 ft | 455 kts | 9° |
| 2026-04-30 12:59 | 46.69552 | -2.36508 | 36076 ft | 455 kts | 9° |
| 2026-04-30 12:59 | 46.75865 | -2.35217 | 36081 ft | 455 kts | 9° |
| 2026-04-30 13:00 | 46.82173 | -2.33936 | 36083 ft | 456 kts | 9° |
| 2026-04-30 13:00 | 46.88470 | -2.32644 | 36081 ft | 456 kts | 9° |
| 2026-04-30 13:01 | 46.94744 | -2.31339 | 36080 ft | 455 kts | 9° |
| 2026-04-30 13:01 | 47.01016 | -2.30044 | 36080 ft | 455 kts | 9° |
| 2026-04-30 13:02 | 47.07290 | -2.28757 | 36071 ft | 455 kts | 9° |
| 2026-04-30 13:02 | 47.13559 | -2.27460 | 36069 ft | 455 kts | 9° |
| 2026-04-30 13:03 | 47.19828 | -2.26154 | 36066 ft | 455 kts | 9° |
| 2026-04-30 13:03 | 47.26091 | -2.24851 | 36068 ft | 454 kts | 9° |
| 2026-04-30 13:04 | 47.32349 | -2.23559 | 36072 ft | 454 kts | 9° |
| 2026-04-30 13:04 | 47.38609 | -2.22243 | 36059 ft | 454 kts | 9° |
| 2026-04-30 13:05 | 47.44861 | -2.20924 | 36068 ft | 454 kts | 9° |
| 2026-04-30 13:06 | 47.54293 | -2.18937 | 36071 ft | 454 kts | 9° |
| 2026-04-30 13:06 | 47.60551 | -2.17628 | 36074 ft | 454 kts | 9° |
| 2026-04-30 13:07 | 47.66818 | -2.16305 | 36064 ft | 455 kts | 9° |
| 2026-04-30 13:07 | 47.73084 | -2.14976 | 36067 ft | 455 kts | 9° |
| 2026-04-30 13:08 | 47.79357 | -2.13640 | 36067 ft | 455 kts | 9° |
| 2026-04-30 13:08 | 47.85636 | -2.12303 | 36066 ft | 456 kts | 9° |
| 2026-04-30 13:09 | 47.91928 | -2.10962 | 36063 ft | 456 kts | 9° |
| 2026-04-30 13:09 | 47.98212 | -2.09615 | 36073 ft | 456 kts | 9° |
| 2026-04-30 13:10 | 48.04520 | -2.08264 | 36070 ft | 455 kts | 9° |
| 2026-04-30 13:10 | 48.10787 | -2.06917 | 36071 ft | 455 kts | 9° |
| 2026-04-30 13:11 | 48.17058 | -2.05566 | 36067 ft | 455 kts | 9° |
| 2026-04-30 13:11 | 48.23326 | -2.04214 | 36065 ft | 455 kts | 9° |
| 2026-04-30 13:12 | 48.29631 | -2.02852 | 36064 ft | 455 kts | 9° |
| 2026-04-30 13:12 | 48.35905 | -2.01495 | 36065 ft | 455 kts | 9° |
| 2026-04-30 13:13 | 48.45308 | -1.99436 | 36059 ft | 455 kts | 9° |
| 2026-04-30 13:14 | 48.54761 | -1.97372 | 36066 ft | 455 kts | 9° |
| 2026-04-30 13:14 | 48.64158 | -1.95308 | 36066 ft | 455 kts | 9° |
| 2026-04-30 13:15 | 48.73567 | -1.93234 | 36066 ft | 455 kts | 9° |
| 2026-04-30 13:16 | 48.79834 | -1.91851 | 36071 ft | 456 kts | 9° |
| 2026-04-30 13:16 | 48.86112 | -1.90462 | 36080 ft | 456 kts | 9° |
| 2026-04-30 13:17 | 48.95523 | -1.88355 | 36090 ft | 456 kts | 10° |
| 2026-04-30 13:18 | 49.04906 | -1.86062 | 35968 ft | 454 kts | 11° |
| 2026-04-30 13:18 | 49.11098 | -1.84542 | 35714 ft | 449 kts | 11° |
| 2026-04-30 13:18 | 49.14176 | -1.83791 | 35589 ft | 449 kts | 11° |
| 2026-04-30 13:19 | 49.17261 | -1.83035 | 35465 ft | 449 kts | 11° |
| 2026-04-30 13:19 | 49.20354 | -1.82273 | 35341 ft | 449 kts | 11° |
| 2026-04-30 13:19 | 49.23475 | -1.81505 | 35220 ft | 449 kts | 11° |
| 2026-04-30 13:19 | 49.26563 | -1.80745 | 35189 ft | 449 kts | 11° |
| 2026-04-30 13:20 | 49.29651 | -1.79985 | 35068 ft | 450 kts | 11° |
| 2026-04-30 13:20 | 49.32744 | -1.79224 | 34957 ft | 450 kts | 11° |
| 2026-04-30 13:20 | 49.35834 | -1.78461 | 34837 ft | 450 kts | 11° |
| 2026-04-30 13:20 | 49.37885 | -1.77954 | 34744 ft | 450 kts | 11° |
| 2026-04-30 13:21 | 49.40977 | -1.77191 | 34624 ft | 449 kts | 11° |
| 2026-04-30 13:21 | 49.44063 | -1.76432 | 34511 ft | 449 kts | 11° |
| 2026-04-30 13:21 | 49.47144 | -1.75677 | 34394 ft | 449 kts | 11° |
| 2026-04-30 13:22 | 49.53323 | -1.74150 | 34079 ft | 451 kts | 11° |
| 2026-04-30 13:22 | 49.62658 | -1.72307 | 34108 ft | 453 kts | 4° |
| 2026-04-30 13:23 | 49.72102 | -1.71524 | 34109 ft | 453 kts | 4° |
| 2026-04-30 13:24 | 49.84732 | -1.70452 | 34110 ft | 452 kts | 5° |
| 2026-04-30 13:25 | 49.97341 | -1.69386 | 33986 ft | 458 kts | 5° |
| 2026-04-30 13:26 | 50.06647 | -1.65885 | 31917 ft | 455 kts | 19° |
| 2026-04-30 13:26 | 50.12661 | -1.62992 | 30804 ft | 449 kts | 19° |
| 2026-04-30 13:27 | 50.18640 | -1.60139 | 29647 ft | 443 kts | 20° |
| 2026-04-30 13:28 | 50.27373 | -1.55830 | 28025 ft | 431 kts | 20° |
| 2026-04-30 13:28 | 50.33099 | -1.53066 | 26942 ft | 425 kts | 20° |
| 2026-04-30 13:28 | 50.35919 | -1.51695 | 26426 ft | 423 kts | 21° |
| 2026-04-30 13:29 | 50.41504 | -1.48962 | 25399 ft | 419 kts | 22° |
| 2026-04-30 13:29 | 50.47082 | -1.46232 | 24432 ft | 415 kts | 22° |
| 2026-04-30 13:30 | 50.55156 | -1.41756 | 23016 ft | 400 kts | 34° |
| 2026-04-30 13:31 | 50.59978 | -1.37597 | 22125 ft | 391 kts | 34° |
| 2026-04-30 13:31 | 50.67047 | -1.31526 | 20768 ft | 381 kts | 33° |
| 2026-04-30 13:32 | 50.71706 | -1.27504 | 19826 ft | 377 kts | 33° |
| 2026-04-30 13:32 | 50.76291 | -1.23530 | 18859 ft | 375 kts | 34° |
| 2026-04-30 13:33 | 50.80711 | -1.19219 | 17823 ft | 371 kts | 38° |
| 2026-04-30 13:33 | 50.84779 | -1.14464 | 17141 ft | 351 kts | 49° |
| 2026-04-30 13:34 | 50.86540 | -1.11769 | 16430 ft | 356 kts | 49° |
| 2026-04-30 13:34 | 50.91884 | -1.03649 | 14922 ft | 352 kts | 48° |
| 2026-04-30 13:35 | 50.93637 | -1.00972 | 14490 ft | 349 kts | 48° |
| 2026-04-30 13:35 | 50.97091 | -0.95660 | 13620 ft | 343 kts | 48° |
| 2026-04-30 13:36 | 51.00496 | -0.90451 | 12693 ft | 338 kts | 47° |
| 2026-04-30 13:36 | 51.02191 | -0.87888 | 12248 ft | 336 kts | 48° |
| 2026-04-30 13:36 | 51.05748 | -0.83145 | 11380 ft | 338 kts | 28° |
| 2026-04-30 13:37 | 51.08065 | -0.82202 | 10933 ft | 344 kts | 6° |
| 2026-04-30 13:37 | 51.12822 | -0.82282 | 10313 ft | 336 kts | 1° |
| 2026-04-30 13:38 | 51.17353 | -0.82497 | 10074 ft | 316 kts | 1° |
| 2026-04-30 13:38 | 51.19534 | -0.82607 | 9866 ft | 310 kts | 1° |
| 2026-04-30 13:38 | 51.23792 | -0.82820 | 8784 ft | 304 kts | 1° |
| 2026-04-30 13:39 | 51.27973 | -0.82991 | 7658 ft | 298 kts | 1° |
| 2026-04-30 13:39 | 51.32150 | -0.83170 | 6899 ft | 296 kts | 1° |
| 2026-04-30 13:40 | 51.34171 | -0.83238 | 6687 ft | 291 kts | 1° |
| 2026-04-30 13:40 | 51.36165 | -0.83297 | 6563 ft | 282 kts | 1° |
| 2026-04-30 13:40 | 51.38059 | -0.83027 | 6432 ft | 259 kts | 16° |
| 2026-04-30 13:40 | 51.39787 | -0.82709 | 6303 ft | 245 kts | 359° |
| 2026-04-30 13:41 | 51.41420 | -0.83044 | 6193 ft | 228 kts | 348° |
| 2026-04-30 13:41 | 51.42837 | -0.84055 | 5928 ft | 222 kts | 326° |
| 2026-04-30 13:41 | 51.44128 | -0.85385 | 5585 ft | 221 kts | 332° |
| 2026-04-30 13:41 | 51.45497 | -0.86509 | 5223 ft | 221 kts | 337° |
| 2026-04-30 13:42 | 51.46927 | -0.87334 | 4865 ft | 216 kts | 0° |
| 2026-04-30 13:42 | 51.48317 | -0.86893 | 4553 ft | 197 kts | 39° |
| 2026-04-30 13:42 | 51.49079 | -0.83512 | 4028 ft | 163 kts | 122° |
| 2026-04-30 13:43 | 51.48415 | -0.81979 | 3986 ft | 168 kts | 122° |
| 2026-04-30 13:43 | 51.47926 | -0.80268 | 3876 ft | 170 kts | 109° |
| 2026-04-30 13:43 | 51.47714 | -0.78391 | 3706 ft | 170 kts | 99° |
| 2026-04-30 13:43 | 51.47645 | -0.76508 | 3503 ft | 168 kts | 96° |
| 2026-04-30 13:44 | 51.47631 | -0.75259 | 3353 ft | 168 kts | 94° |
| 2026-04-30 13:44 | 51.47628 | -0.73352 | 3140 ft | 169 kts | 93° |
| 2026-04-30 13:44 | 51.47635 | -0.71475 | 2908 ft | 167 kts | 92° |
| 2026-04-30 13:44 | 51.47644 | -0.69635 | 2695 ft | 164 kts | 92° |
| 2026-04-30 13:45 | 51.47664 | -0.66112 | 2277 ft | 148 kts | 92° |
| 2026-04-30 13:45 | 51.47672 | -0.64472 | 2070 ft | 148 kts | 92° |
| 2026-04-30 13:45 | 51.47681 | -0.62835 | 1879 ft | 144 kts | 92° |
| 2026-04-30 13:46 | 51.47689 | -0.61219 | 1679 ft | 143 kts | 92° |
| 2026-04-30 13:46 | 51.47697 | -0.59667 | 1487 ft | 136 kts | 92° |
| 2026-04-30 13:46 | 51.47705 | -0.58157 | 1316 ft | 134 kts | 91° |
| 2026-04-30 13:46 | 51.47712 | -0.56660 | 1135 ft | 134 kts | 91° |
| 2026-04-30 13:47 | 51.47719 | -0.55164 | 957 ft | 136 kts | 90° |
| 2026-04-30 13:47 | 51.47726 | -0.53654 | 767 ft | 137 kts | 90° |
| 2026-04-30 13:47 | 51.47736 | -0.52104 | 550 ft | 137 kts | 89° |
| 2026-04-30 13:47 | 51.47747 | -0.50617 | 404 ft | 132 kts | 92° |
| 2026-04-30 13:48 | 51.47751 | -0.49119 | 214 ft | 134 kts | 91° |
| 2026-04-30 13:48 | 51.47752 | -0.47647 | 91 ft | 121 kts | 89° |
| 2026-04-30 13:48 | 51.47757 | -0.46505 | 91 ft | 78 kts | 89° |
| 2026-04-30 13:48 | 51.47760 | -0.45872 | 84 ft | 46 kts | 90° |
| 2026-04-30 13:49 | 51.47761 | -0.45376 | 87 ft | 39 kts | 90° |
| 2026-04-30 13:49 | 51.47688 | -0.45176 | 89 ft | 20 kts | 170° |
| 2026-04-30 13:49 | 51.47592 | -0.45116 | 87 ft | 8 kts | 85° |
| 2026-04-30 13:49 | 51.47599 | -0.44994 | 86 ft | 13 kts | 85° |
| 2026-04-30 13:50 | 51.47603 | -0.44838 | 86 ft | 15 kts | 89° |
| 2026-04-30 13:50 | 51.47600 | -0.44457 | 86 ft | 19 kts | 89° |
| 2026-04-30 13:50 | 51.47592 | -0.44239 | 86 ft | 20 kts | 91° |
| 2026-04-30 13:51 | 51.47555 | -0.44065 | 89 ft | 17 kts | 165° |
| 2026-04-30 13:51 | 51.47429 | -0.44060 | 86 ft | 20 kts | 179° |
| 2026-04-30 13:51 | 51.47283 | -0.44059 | 86 ft | 22 kts | 179° |
| 2026-04-30 13:51 | 51.47118 | -0.44054 | 87 ft | 25 kts | 179° |
| 2026-04-30 13:52 | 51.46959 | -0.44057 | 89 ft | 20 kts | 179° |
| 2026-04-30 13:52 | 51.46825 | -0.44055 | 88 ft | 18 kts | 179° |
| 2026-04-30 13:52 | 51.46689 | -0.44053 | 90 ft | 20 kts | 181° |
| 2026-04-30 13:52 | 51.46581 | -0.44053 | 88 ft | 16 kts | 180° |
| 2026-04-30 13:53 | 51.46460 | -0.44070 | 87 ft | 18 kts | 204° |
| 2026-04-30 13:53 | 51.46373 | -0.44145 | 89 ft | 14 kts | 210° |
| 2026-04-30 13:53 | 51.46284 | -0.44220 | 90 ft | 15 kts | 203° |
| 2026-04-30 13:53 | 51.46189 | -0.44285 | 88 ft | 13 kts | 203° |
| 2026-04-30 13:54 | 51.46158 | -0.44364 | 88 ft | 9 kts | 294° |
| 2026-04-30 13:54 | 51.46169 | -0.44401 | 87 ft | 2 kts | 294° |
| 2026-04-30 13:54 | 51.46174 | -0.44420 | 90 ft | 0 kts | 294° |